• Join FlightAware (Why Join?)
  • Login
  • US Flag 
01:10AM EDT


 

Airport Tracker/Info


-or-


 

Live Flight TrackerFlight Track Log ✈ N612CT ✈ 17-Nov-2013 ✈ KAPF - KVNC

Flight Track Log - Related Links

Times and Time Zones

All times are in EST time to prevent confusion due to time zone crossing. See the N612CT flight status page for this flight to view local times or setup timezone preferences in your user account.

Time Position Orientation Groundspeed Altitude Reporting Facility
EST Latitude Longitude Course Direction KTS MPH feet Rate Location/Type
08:44AM 26.4582 -81.8931 341° North  Level FlightAware Approximate
08:45AM 26.5091 -81.9127 341° North  Level FlightAware Approximate
08:46AM 26.5600 -81.9323 341° North  Level FlightAware Approximate
08:47AM 26.6110 -81.9520 341° North  Level FlightAware Approximate
08:48AM 26.6619 -81.9717 341° North  Level FlightAware Approximate
08:49AM 26.6997 -82.0147 291° West  Level Estimated
08:50AM 26.7375 -82.0577 283° West  Level Estimated
08:51AM 26.7814 -82.0926 325° Northwest  Level FlightAware Approximate
08:52AM 26.8183 -82.1366 294° West  Level Estimated
08:53AM 26.8552 -82.1807 294° West  Level Estimated
08:54AM 26.8921 -82.2247 313° West  Level FlightAware Approximate
08:55AM 26.9289 -82.2688 294° West  Level Estimated
08:56AM 26.9657 -82.3130 294° West  Level Estimated
08:57AM 27.0025 -82.3572 294° West  Level Estimated
08:58AM 27.0393 -82.4014 294° West  Level Estimated
08:59AM 27.0667 -82.4333 294° West  Level FlightAware Approximate
09:00AM 27.0716 -82.4403 294° West  Level Estimated
09:00AM 26.8667 -82.3167 294° West 173 199 4,000  Level Tampa TRACON
09:01AM 27.0716 -82.4403 294° West  Level Estimated
09:01AM 26.8833 -82.3333 318° Northwest 174 200 4,000  Level Tampa TRACON
09:02AM 27.0716 -82.4403 294° West  Level Estimated
09:02AM 26.9333 -82.3500 343° North 175 201 3,700  Level Tampa TRACON
09:03AM 27.0716 -82.4403 294° West  Level Estimated
09:03AM 26.9667 -82.3833 318° Northwest 175 201 3,000  Level Tampa TRACON
09:04AM 27.0716 -82.4403 294° West  Level Estimated
09:04AM 27.0167 -82.4000 343° North 167 192 2,300  Level Tampa TRACON
09:05AM 27.0716 -82.4403 294° West  Level Estimated